Time;durP1;ratioP1;P1;durP2;ratioP2;P2;SDS_P1;SDS_P2;PMS_P1;PMS_P2;Temp;Humidity;BMP_temperature;BMP_pressure;BME280_temperature;BME280_humidity;BME280_pressure;Samples;Min_cycle;Max_cycle;Signal;HPM_P1;HPM_P2
2022/04/02 10:46:19;;;;;;;0.70;0.70;;;;;;;19.83;34.50;91136.06;5094365;27;20555;-79
2022/04/02 10:48:56;;;;;;;0.55;0.55;;;;;;;19.63;34.80;91162.91;5092862;27;20647;-74
2022/04/02 10:51:29;;;;;;;0.40;0.40;;;;;;;19.13;34.71;91185.03;5075616;27;20579;-78
2022/04/02 10:54:07;;;;;;;0.70;0.70;;;;;;;18.48;35.89;91148.69;5071210;27;20579;-76
2022/04/02 10:56:36;;;;;;;0.73;0.57;;;;;;;18.75;36.25;91135.84;5073485;27;20227;-77
2022/04/02 10:59:04;;;;;;;0.52;0.52;;;;;;;19.23;35.03;91099.47;5076406;27;20560;-75
2022/04/02 11:01:33;;;;;;;0.55;0.55;;;;;;;20.34;34.14;91136.84;5085929;27;20603;-77
2022/04/02 11:04:14;;;;;;;1.08;0.90;;;;;;;20.56;32.61;91146.47;5080800;27;20572;-77
2022/04/02 11:06:49;;;;;;;3.22;0.90;;;;;;;20.48;33.24;91131.09;5093611;27;20571;-78
2022/04/02 11:09:34;;;;;;;0.50;0.50;;;;;;;20.66;33.28;91157.41;5093321;27;20567;-74
2022/04/02 11:12:08;;;;;;;0.68;0.68;;;;;;;21.45;32.26;91150.75;5094203;27;20495;-75
2022/04/02 11:14:40;;;;;;;0.95;0.55;;;;;;;21.11;31.65;91104.75;5081170;27;20231;-75
2022/04/02 11:17:10;;;;;;;0.65;0.57;;;;;;;20.98;31.40;91119.84;5093721;27;20528;-77
2022/04/02 11:19:57;;;;;;;0.75;0.75;;;;;;;21.09;31.85;91170.84;5094020;27;20479;-76
2022/04/02 11:22:29;;;;;;;0.60;0.60;;;;;;;20.51;33.50;91151.28;5093845;27;20607;-77
2022/04/02 11:25:07;;;;;;;0.70;0.70;;;;;;;19.59;34.33;91112.13;5093598;27;20199;-76
2022/04/02 11:27:41;;;;;;;1.75;0.43;;;;;;;18.69;34.41;91113.41;5094241;27;20183;-82
2022/04/02 11:30:11;;;;;;;0.50;0.50;;;;;;;17.82;35.25;91082.59;5093348;27;20536;-77
2022/04/02 11:32:42;;;;;;;0.55;0.55;;;;;;;17.57;37.84;91101.97;5092682;27;20547;-80
2022/04/02 11:35:16;;;;;;;0.50;0.50;;;;;;;17.12;38.91;91127.44;5093412;27;20249;-85
2022/04/02 11:37:57;;;;;;;8.48;6.13;;;;;;;16.73;41.37;91101.22;5087686;27;20481;-76
2022/04/02 11:40:33;;;;;;;4.47;3.67;;;;;;;16.01;41.64;91032.91;5072693;27;20600;-81
2022/04/02 11:43:04;;;;;;;0.70;0.70;;;;;;;15.99;42.58;91059.47;5070965;27;20571;-81
2022/04/02 11:45:31;;;;;;;1.00;1.00;;;;;;;15.88;43.15;91032.41;5070384;27;20620;-81
2022/04/02 11:48:15;;;;;;;0.60;0.60;;;;;;;16.12;42.02;91078.63;5081101;27;20519;-85
2022/04/02 11:50:46;;;;;;;0.50;0.50;;;;;;;15.61;42.33;91060.25;5086639;27;20449;-80
2022/04/02 11:53:14;;;;;;;0.60;0.60;;;;;;;15.44;43.15;91092.22;5086955;27;20226;-76
2022/04/02 11:55:46;;;;;;;0.60;0.60;;;;;;;15.10;43.75;91058.66;5088394;27;20663;-78
2022/04/02 11:58:15;;;;;;;1.85;0.50;;;;;;;15.21;44.71;91063.66;5074316;27;20536;-79
2022/04/02 12:10:42;;;;;;;0.70;0.70;;;;;;;13.88;49.82;91016.34;4938306;28;20564;-87
2022/04/02 12:13:30;;;;;;;1.13;0.73;;;;;;;14.02;50.37;91005.91;5060235;27;20533;-80
2022/04/02 12:19:59;;;;;;;1.35;1.30;;;;;;;14.53;52.29;91100.72;5052662;27;20463;-82
2022/04/02 12:22:41;;;;;;;1.30;1.00;;;;;;;13.83;56.42;91074.31;5057910;27;20647;-79
2022/04/02 12:25:27;;;;;;;1.08;1.08;;;;;;;13.23;63.61;91024.94;5063195;27;20429;-79
2022/04/02 12:28:00;;;;;;;0.80;0.80;;;;;;;12.36;63.61;91025.72;5060803;27;20538;-82
2022/04/02 12:30:35;;;;;;;1.17;1.17;;;;;;;11.99;67.50;91022.59;5068439;27;20196;-78
2022/04/02 12:33:08;;;;;;;1.00;1.00;;;;;;;12.04;71.26;91051.69;5060680;27;20294;-78
2022/04/02 12:35:39;;;;;;;1.00;1.00;;;;;;;12.02;78.48;91043.41;5059883;27;20633;-78
2022/04/02 12:38:23;;;;;;;2.43;1.87;;;;;;;11.92;75.15;90991.84;5059950;27;20592;-80
2022/04/02 12:40:52;;;;;;;1.10;1.10;;;;;;;12.12;69.37;90999.69;5059981;27;20204;-79
2022/04/02 12:43:27;;;;;;;2.87;1.70;;;;;;;12.88;72.13;91025.91;5061007;27;20495;-79
2022/04/02 12:45:56;;;;;;;1.08;1.08;;;;;;;13.01;67.51;90964.94;5059961;27;20228;-79
2022/04/02 12:48:26;;;;;;;1.20;0.75;;;;;;;13.95;69.16;91009.84;5060565;27;20473;-77
2022/04/02 12:50:58;;;;;;;0.65;0.65;;;;;;;14.26;64.63;90990.38;5060483;27;20524;-79
2022/04/02 12:53:31;;;;;;;0.90;0.90;;;;;;;14.61;60.50;90988.28;5059760;27;20193;-78
2022/04/02 12:56:02;;;;;;;1.38;1.27;;;;;;;14.85;56.87;90960.78;5066201;27;20302;-78
2022/04/02 12:58:36;;;;;;;0.75;0.75;;;;;;;15.31;55.14;91011.06;5059306;27;20483;-75
2022/04/02 13:01:43;;;;;;;0.70;0.70;;;;;;;15.63;51.26;91056.66;5060785;27;20571;-76
2022/04/02 13:04:13;;;;;;;1.33;1.25;;;;;;;15.19;49.74;90980.78;5068562;27;20212;-75
2022/04/02 13:07:24;;;;;;;1.52;1.42;;;;;;;15.58;46.80;91063.09;5062691;27;20512;-76
2022/04/02 13:10:00;;;;;;;1.02;1.02;;;;;;;15.04;48.68;91036.28;5060131;27;20560;-78
2022/04/02 13:12:29;;;;;;;0.68;0.68;;;;;;;14.86;48.51;91083.63;5060185;27;20544;-78
2022/04/02 13:15:05;;;;;;;1.33;1.23;;;;;;;14.69;50.46;91039.28;5057347;27;20619;-75
2022/04/02 13:20:28;;;;;;;0.50;0.50;;;;;;;14.69;48.37;91104.56;5059294;27;20540;-76
2022/04/02 13:20:36;;;;;;;0.60;0.60;;;;;;;14.25;53.54;91134.38;5064678;27;20549;-79
2022/04/02 13:23:10;;;;;;;0.88;0.88;;;;;;;12.83;60.13;91012.78;5061049;27;20551;-77
2022/04/02 13:25:51;;;;;;;0.80;0.80;;;;;;;11.77;66.81;90997.25;5054976;28;20193;-76
2022/04/02 13:28:37;;;;;;;0.50;0.50;;;;;;;11.05;72.04;90994.78;5059359;27;20208;-81
2022/04/02 13:31:05;;;;;;;1.87;1.70;;;;;;;10.59;77.39;91002.22;5066699;27;20470;-76
2022/04/02 13:34:03;;;;;;;0.87;0.70;;;;;;;10.17;78.09;90990.00;5058439;27;20523;-79
2022/04/02 13:37:13;;;;;;;0.63;0.63;;;;;;;10.46;82.37;91071.31;5054746;28;20514;-78
2022/04/02 13:39:52;;;;;;;1.90;1.47;;;;;;;10.22;84.62;91051.84;5065165;27;20223;-80
2022/04/02 13:42:31;;;;;;;0.70;0.70;;;;;;;9.94;81.93;91014.19;5059363;27;20291;-80
2022/04/02 13:44:59;;;;;;;0.60;0.60;;;;;;;10.22;85.53;91053.56;5061374;27;20546;-77
2022/04/02 13:47:31;;;;;;;4.17;1.47;;;;;;;9.93;89.06;90997.44;5058962;27;20555;-78
2022/04/02 13:50:00;;;;;;;2.57;2.23;;;;;;;10.11;86.72;90996.22;5059024;27;20499;-75
2022/04/02 13:52:32;;;;;;;1.00;1.00;;;;;;;10.33;81.55;90995.63;5058351;27;20608;-77
2022/04/02 13:55:10;;;;;;;1.47;1.47;;;;;;;10.82;73.89;91031.75;5076074;27;20534;-75
2022/04/02 13:57:41;;;;;;;1.17;1.13;;;;;;;10.75;75.64;90990.16;5054647;28;20529;-78
2022/04/02 14:00:12;;;;;;;0.80;0.80;;;;;;;11.05;71.83;91029.34;5054531;28;20201;-77
2022/04/02 14:02:40;;;;;;;1.83;1.73;;;;;;;10.82;74.11;90964.47;5058128;27;20197;-77
2022/04/02 14:05:20;;;;;;;5.07;1.73;;;;;;;11.33;77.40;91003.72;5054500;28;20451;-78
2022/04/02 14:07:59;;;;;;;1.90;1.80;;;;;;;11.34;75.36;90997.75;5054642;28;20594;-77
2022/04/02 14:10:35;;;;;;;2.60;2.50;;;;;;;11.40;77.88;90931.59;5054581;27;20208;-77
2022/04/02 14:13:14;;;;;;;3.10;2.90;;;;;;;11.84;79.71;90945.25;5057135;28;20545;-79
2022/04/02 14:15:50;;;;;;;1.80;1.70;;;;;;;12.55;77.60;91018.34;5057230;28;20216;-77
2022/04/02 14:18:23;;;;;;;1.20;1.20;;;;;;;12.77;73.17;91007.38;5056033;27;20726;-76
2022/04/02 14:20:53;;;;;;;0.60;0.60;;;;;;;12.42;72.16;90985.53;5056175;28;20473;-77
2022/04/02 14:23:26;;;;;;;1.57;1.47;;;;;;;12.48;71.99;91012.13;5056544;28;20630;-73
2022/04/02 14:26:30;;;;;;;1.40;1.40;;;;;;;12.37;76.12;91052.66;5055681;28;20475;-72
2022/04/02 14:29:27;;;;;;;0.90;0.90;;;;;;;11.79;79.92;91061.16;5056251;28;20463;-73
2022/04/02 14:32:40;;;;;;;1.60;1.50;;;;;;;11.31;83.24;91062.91;5054465;28;20579;-75
2022/04/02 14:35:38;;;;;;;1.37;1.27;;;;;;;10.06;95.67;90985.63;5005826;28;20607;-75
2022/04/02 14:38:36;;;;;;;2.17;1.80;;;;;;;10.10;97.46;91061.91;5059488;27;20577;-78
2022/04/02 14:41:09;;;;;;;1.40;1.30;;;;;;;9.38;98.50;91003.56;5055098;28;20188;-74
2022/04/02 14:44:29;;;;;;;1.10;1.10;;;;;;;9.10;99.27;91012.06;5055710;28;20247;-75
2022/04/02 14:47:44;;;;;;;1.33;1.23;;;;;;;8.75;98.36;90955.53;4954414;28;20561;-81
2022/04/02 14:50:51;;;;;;;1.23;1.23;;;;;;;8.31;98.46;90938.97;5026554;28;20597;-78
2022/04/02 14:54:19;;;;;;;1.23;1.23;;;;;;;8.63;100.00;90981.47;5026543;28;20615;-83
2022/04/02 14:57:18;;;;;;;2.03;0.90;;;;;;;8.83;92.96;91021.34;5054735;28;20562;-77
2022/04/02 15:00:24;;;;;;;1.90;1.80;;;;;;;8.99;92.95;91027.03;4982763;28;20513;-75
2022/04/02 15:03:36;;;;;;;1.57;1.47;;;;;;;9.03;88.30;91050.31;5041114;28;20556;-76
2022/04/02 15:06:10;;;;;;;4.57;3.67;;;;;;;9.00;91.14;91017.78;5055838;28;20185;-77
2022/04/02 15:09:25;;;;;;;3.37;3.17;;;;;;;8.73;92.93;90967.44;5055852;28;20465;-77
2022/04/02 15:11:58;;;;;;;5.73;4.73;;;;;;;9.18;93.31;91054.44;5055668;28;20557;-78
2022/04/02 15:14:29;;;;;;;3.67;3.37;;;;;;;9.28;95.89;91029.44;5055175;28;20544;-78
2022/04/02 15:16:57;;;;;;;5.50;3.00;;;;;;;8.90;93.10;90996.59;5055225;28;20597;-77
2022/04/02 15:19:26;;;;;;;1.83;1.73;;;;;;;8.94;89.66;91006.38;5055694;28;20580;-77
2022/04/02 15:22:06;;;;;;;4.13;3.80;;;;;;;8.86;91.39;90968.28;5054988;28;20580;-79
2022/04/02 15:24:38;;;;;;;2.10;1.53;;;;;;;9.05;87.15;91004.00;5055646;28;20498;-78
2022/04/02 15:27:06;;;;;;;1.60;1.60;;;;;;;9.31;86.42;91030.06;5056108;28;20464;-77
2022/04/02 15:29:38;;;;;;;3.83;3.63;;;;;;;9.63;86.48;91055.75;5068791;27;20478;-77
2022/04/02 15:32:08;;;;;;;5.70;5.00;;;;;;;9.48;88.80;91001.25;5078689;27;20544;-78
2022/04/02 15:34:46;;;;;;;14.53;3.17;;;;;;;9.79;89.21;91032.88;5079763;27;20576;-78
2022/04/02 15:37:23;;;;;;;37.80;3.83;;;;;;;9.42;86.42;90958.81;5079019;27;20598;-77
2022/04/02 15:39:51;;;;;;;8.07;3.40;;;;;;;9.53;87.01;90984.94;5080354;27;20278;-77
2022/04/02 15:42:24;;;;;;;7.87;4.43;;;;;;;9.78;88.89;91021.97;5080201;27;20621;-77
2022/04/02 15:44:58;;;;;;;2.33;2.23;;;;;;;9.84;83.88;91045.97;5078828;27;20493;-77
2022/04/02 15:47:46;;;;;;;17.23;5.30;;;;;;;9.85;86.65;91012.28;5079871;27;20196;-77
2022/04/02 15:50:16;;;;;;;18.20;1.63;;;;;;;9.38;83.94;90959.91;5079143;27;20450;-77
2022/04/02 15:52:48;;;;;;;20.37;1.53;;;;;;;9.90;83.91;91025.41;5079371;27;20296;-77
2022/04/02 15:55:22;;;;;;;3.97;1.80;;;;;;;9.56;83.68;90978.88;5078946;27;20591;-76
2022/04/02 15:58:21;;;;;;;2.33;2.23;;;;;;;9.61;86.25;90976.88;5079512;27;20478;-76
2022/04/02 16:00:51;;;;;;;4.33;3.40;;;;;;;9.49;84.00;90990.28;5057219;27;20463;-76
2022/04/02 16:03:44;;;;;;;2.50;2.30;;;;;;;9.91;83.46;91073.19;5066873;27;20584;-77
2022/04/02 16:06:30;;;;;;;5.57;2.90;;;;;;;9.92;82.32;91099.25;5066961;27;20573;-77
2022/04/02 16:09:42;;;;;;;1.70;1.60;;;;;;;9.29;85.45;90998.31;5062191;27;20450;-77
2022/04/02 16:12:33;;;;;;;2.53;1.27;;;;;;;9.60;87.02;91091.22;5056369;28;20573;-76
2022/04/02 16:15:41;;;;;;;1.77;1.67;;;;;;;9.45;89.03;91089.69;5056504;27;20579;-76
2022/04/02 16:18:25;;;;;;;1.47;1.47;;;;;;;8.89;89.99;91047.84;5069898;27;20474;-75
2022/04/02 16:21:17;;;;;;;5.50;3.50;;;;;;;8.61;92.47;91044.50;5060601;27;20199;-74
2022/04/02 16:23:45;;;;;;;4.47;4.27;;;;;;;8.20;92.53;91026.81;5061790;27;20644;-75
2022/04/02 16:26:13;;;;;;;2.83;2.73;;;;;;;8.36;97.93;91093.88;5060798;27;20543;-74
2022/04/02 16:28:49;;;;;;;1.67;1.57;;;;;;;7.91;100.00;91075.50;5058175;27;20515;-75
2022/04/02 16:31:19;;;;;;;1.93;1.87;;;;;;;7.76;100.00;91149.25;5058550;27;20580;-78
2022/04/02 16:33:51;;;;;;;3.10;1.80;;;;;;;7.35;100.00;91121.38;5061796;27;20557;-77
2022/04/02 16:36:24;;;;;;;3.73;1.20;;;;;;;6.69;100.00;91083.97;5059749;27;20301;-77
2022/04/02 16:38:58;;;;;;;3.30;3.00;;;;;;;6.49;100.00;91066.63;5069907;27;20560;-78
2022/04/02 16:41:42;;;;;;;3.80;3.50;;;;;;;6.55;100.00;91094.69;5068848;27;20460;-75
2022/04/02 16:44:22;;;;;;;3.83;3.53;;;;;;;6.85;100.00;91134.13;5062784;27;20300;-75
2022/04/02 16:46:50;;;;;;;2.50;2.40;;;;;;;6.77;100.00;91149.59;5059957;27;20646;-81
2022/04/02 16:49:20;;;;;;;3.27;3.07;;;;;;;6.36;100.00;91093.25;5058751;28;20205;-78
2022/04/02 16:51:48;;;;;;;4.47;4.03;;;;;;;6.33;100.00;91091.69;5057596;28;20503;-78
2022/04/02 16:54:16;;;;;;;4.07;3.87;;;;;;;6.41;100.00;91078.75;5057774;28;20521;-78
2022/04/02 16:56:44;;;;;;;4.73;3.50;;;;;;;6.44;100.00;91076.91;5057726;28;20623;-80
2022/04/02 16:59:13;;;;;;;2.43;2.23;;;;;;;6.40;100.00;91050.38;5057668;28;20616;-79
2022/04/02 17:01:44;;;;;;;2.23;2.13;;;;;;;6.08;100.00;91021.97;5057685;28;20633;-79
2022/04/02 17:04:30;;;;;;;8.83;4.03;;;;;;;6.64;100.00;91114.31;5058556;27;20507;-79
2022/04/02 17:07:28;;;;;;;4.40;2.73;;;;;;;6.38;100.00;91047.13;5057540;28;20189;-79
2022/04/02 17:09:55;;;;;;;2.63;2.53;;;;;;;6.25;100.00;91026.09;5057901;28;20462;-78
2022/04/02 17:12:29;;;;;;;2.60;2.50;;;;;;;6.41;100.00;91023.59;5057605;28;20571;-79
2022/04/02 17:14:56;;;;;;;2.33;2.23;;;;;;;6.72;100.00;91072.94;5057865;28;20507;-78
2022/04/02 17:17:30;;;;;;;1.53;1.53;;;;;;;6.71;100.00;91054.56;5057282;28;20608;-79
2022/04/02 17:20:02;;;;;;;1.97;1.97;;;;;;;6.83;100.00;91091.53;5056856;27;20592;-79
2022/04/02 17:22:41;;;;;;;7.20;2.87;;;;;;;6.94;100.00;91101.00;5057981;28;20541;-78
2022/04/02 17:25:10;;;;;;;3.07;2.87;;;;;;;6.48;100.00;91020.66;5067956;27;20510;-78
2022/04/02 17:27:43;;;;;;;2.13;2.03;;;;;;;7.04;100.00;91114.72;5077272;27;20669;-78
2022/04/02 17:30:19;;;;;;;4.47;3.73;;;;;;;6.57;100.00;91062.03;5077754;27;20274;-78
2022/04/02 17:32:50;;;;;;;5.83;4.87;;;;;;;6.83;100.00;91099.06;5077978;27;20498;-79
2022/04/02 17:35:19;;;;;;;7.03;5.60;;;;;;;6.44;100.00;91048.50;5077537;27;20575;-78
2022/04/02 17:37:50;;;;;;;6.27;5.77;;;;;;;7.06;100.00;91138.03;5077143;27;20587;-79
2022/04/02 17:40:19;;;;;;;5.00;4.67;;;;;;;6.45;100.00;91076.00;5076329;27;20591;-78
2022/04/02 17:42:49;;;;;;;4.53;4.23;;;;;;;6.57;100.00;91107.19;5076420;27;20628;-77
2022/04/02 17:45:25;;;;;;;5.23;3.33;;;;;;;6.97;100.00;91156.09;5076925;27;20498;-78
2022/04/02 17:47:58;;;;;;;6.00;5.53;;;;;;;6.63;100.00;91099.31;5077959;27;20659;-78
2022/04/02 17:50:28;;;;;;;10.90;6.37;;;;;;;6.59;100.00;91096.16;5076405;27;20440;-78
2022/04/02 17:53:01;;;;;;;4.47;3.73;;;;;;;6.73;100.00;91144.81;5074823;27;20257;-78
2022/04/02 17:55:31;;;;;;;3.97;3.80;;;;;;;6.51;100.00;91135.91;5075445;27;20558;-78
2022/04/02 17:58:12;;;;;;;14.40;8.57;;;;;;;6.57;100.00;91174.91;5076747;27;20549;-78
2022/04/02 18:00:41;;;;;;;21.63;14.27;;;;;;;6.75;100.00;91196.56;5076761;27;20572;-78
2022/04/02 18:03:11;;;;;;;17.87;12.83;;;;;;;7.22;100.00;91235.94;5077869;27;20537;-79
2022/04/02 18:05:43;;;;;;;8.50;7.90;;;;;;;6.56;100.00;91149.00;5076394;27;20509;-79
2022/04/02 18:08:15;;;;;;;6.87;6.10;;;;;;;6.79;100.00;91182.97;5068052;27;20282;-82
2022/04/02 18:10:48;;;;;;;12.23;9.13;;;;;;;6.63;100.00;91164.56;5064339;27;20212;-82
2022/04/02 18:13:18;;;;;;;12.00;9.33;;;;;;;6.73;100.00;91170.72;5063937;27;20636;-81
2022/04/02 18:15:46;;;;;;;7.93;6.47;;;;;;;6.80;100.00;91167.00;5061186;27;20323;-83
2022/04/02 18:18:15;;;;;;;8.60;4.73;;;;;;;7.32;100.00;91232.88;5059140;27;20606;-80
2022/04/02 18:20:48;;;;;;;5.37;4.87;;;;;;;7.10;100.00;91187.19;5054080;28;20506;-82
2022/04/02 18:23:18;;;;;;;7.13;5.73;;;;;;;7.35;100.00;91235.22;5059251;27;20580;-81
2022/04/02 18:25:51;;;;;;;7.80;7.33;;;;;;;7.17;100.00;91175.91;5056409;27;20524;-81
2022/04/02 18:28:29;;;;;;;5.27;4.73;;;;;;;7.10;100.00;91174.63;5056459;27;20569;-83
2022/04/02 18:31:12;;;;;;;2.23;1.50;;;;;;;7.28;100.00;91249.00;5054122;28;20540;-82
2022/04/02 18:33:42;;;;;;;1.37;1.27;;;;;;;6.70;100.00;91187.66;5056605;27;20316;-80
2022/04/02 18:36:11;;;;;;;1.70;1.60;;;;;;;7.15;100.00;91282.38;5061798;27;20474;-79
2022/04/02 18:38:44;;;;;;;3.57;3.37;;;;;;;7.18;100.00;91298.09;5057974;27;20473;-81
2022/04/02 18:41:12;;;;;;;2.00;1.90;;;;;;;6.88;100.00;91269.50;5058303;27;20557;-81
2022/04/02 18:43:45;;;;;;;1.40;1.40;;;;;;;6.78;100.00;91265.84;5059389;27;20489;-83
2022/04/02 18:49:36;;;;;;;1.00;1.00;;;;;;;6.22;100.00;91217.59;5056806;27;20232;-83
2022/04/02 18:52:28;;;;;;;0.57;0.57;;;;;;;6.55;100.00;91266.97;5060236;27;20279;-83
2022/04/02 18:55:05;;;;;;;1.30;1.30;;;;;;;6.44;100.00;91287.59;5059233;27;20465;-85
2022/04/02 18:57:45;;;;;;;2.23;2.07;;;;;;;6.02;100.00;91220.28;5063196;27;20615;-82
2022/04/02 19:00:41;;;;;;;1.17;1.03;;;;;;;6.60;100.00;91295.16;5058517;28;20599;-86
2022/04/02 19:03:09;;;;;;;1.03;1.03;;;;;;;5.99;100.00;91205.38;5051957;28;20546;-81
2022/04/02 19:05:39;;;;;;;0.73;0.73;;;;;;;6.56;100.00;91291.19;5063010;27;20600;-82
2022/04/02 19:08:10;;;;;;;1.13;1.13;;;;;;;5.98;100.00;91201.25;5069458;27;20552;-81
2022/04/02 19:10:38;;;;;;;1.50;1.50;;;;;;;6.54;100.00;91281.22;5066042;27;20627;-79
2022/04/02 19:13:07;;;;;;;1.53;1.53;;;;;;;6.57;100.00;91285.28;5057598;28;20482;-80
2022/04/02 19:15:39;;;;;;;0.90;0.90;;;;;;;6.05;100.00;91190.03;5071627;27;20615;-80
2022/04/02 19:18:08;;;;;;;1.07;1.07;;;;;;;6.01;100.00;91186.06;5050721;27;20493;-78
2022/04/02 19:20:35;;;;;;;1.13;1.13;;;;;;;6.08;100.00;91196.59;5067115;27;20523;-79
2022/04/02 19:23:10;;;;;;;1.10;1.10;;;;;;;6.09;100.00;91193.19;5067968;27;20486;-78
2022/04/02 19:25:37;;;;;;;1.00;1.00;;;;;;;6.28;100.00;91233.22;5069195;27;20538;-80
2022/04/02 19:28:08;;;;;;;1.60;1.50;;;;;;;6.07;100.00;91187.47;5067026;27;20902;-79
2022/04/02 19:30:44;;;;;;;3.83;2.23;;;;;;;6.52;100.00;91255.41;5067496;27;20223;-79
2022/04/02 19:33:22;;;;;;;2.20;2.10;;;;;;;6.56;100.00;91268.63;5068275;27;20476;-78
2022/04/02 19:35:52;;;;;;;1.47;1.47;;;;;;;6.47;100.00;91272.41;5069648;27;20577;-79
2022/04/02 19:38:23;;;;;;;1.50;1.50;;;;;;;6.40;100.00;91258.53;5067960;27;20467;-79
2022/04/02 19:40:51;;;;;;;0.80;0.80;;;;;;;6.40;100.00;91270.25;5068004;27;20552;-78
2022/04/02 19:43:21;;;;;;;4.70;1.70;;;;;;;6.30;100.00;91259.88;5069551;27;20584;-79
2022/04/02 19:45:49;;;;;;;1.33;1.33;;;;;;;6.02;100.00;91216.97;5071449;27;20243;-78
2022/04/02 19:48:19;;;;;;;1.77;1.27;;;;;;;5.99;100.00;91217.91;5067232;27;20555;-80
2022/04/02 19:50:49;;;;;;;1.10;1.00;;;;;;;5.90;100.00;91192.47;5068818;27;20564;-80
2022/04/02 19:53:16;;;;;;;3.07;1.47;;;;;;;5.90;100.00;91207.50;5069396;27;20517;-80
2022/04/02 19:55:46;;;;;;;2.20;2.03;;;;;;;5.87;100.00;91192.59;5067081;27;20484;-76
2022/04/02 19:58:20;;;;;;;1.87;1.73;;;;;;;6.05;100.00;91221.81;5056252;28;20614;-78
2022/04/02 20:00:49;;;;;;;0.83;0.83;;;;;;;6.14;100.00;91238.94;5070915;27;20602;-77
2022/04/02 20:03:17;;;;;;;1.30;1.20;;;;;;;6.34;100.00;91270.53;5069076;27;20251;-79
2022/04/02 20:05:45;;;;;;;1.43;1.20;;;;;;;6.02;100.00;91224.47;5065821;27;20192;-78
2022/04/02 20:08:13;;;;;;;1.37;1.37;;;;;;;6.51;100.00;91311.50;5064503;27;20552;-77
2022/04/02 20:10:41;;;;;;;1.23;1.23;;;;;;;6.42;100.00;91311.13;5070053;27;20509;-78
2022/04/02 20:13:29;;;;;;;1.43;1.43;;;;;;;6.23;100.00;91274.38;5066646;27;20604;-79
2022/04/02 20:15:57;;;;;;;1.80;1.70;;;;;;;6.36;100.00;91284.66;5069775;27;20506;-78
2022/04/02 20:18:31;;;;;;;1.60;1.60;;;;;;;6.46;100.00;91293.34;5066981;27;20623;-79
2022/04/02 20:20:59;;;;;;;2.63;2.50;;;;;;;6.61;100.00;91315.16;5055764;28;20495;-77
2022/04/02 20:23:27;;;;;;;2.27;2.07;;;;;;;6.41;100.00;91282.72;5066805;27;20237;-79
2022/04/02 20:25:55;;;;;;;2.27;2.17;;;;;;;6.18;100.00;91237.88;5067078;27;20585;-77
2022/04/02 20:28:25;;;;;;;1.27;1.27;;;;;;;6.29;100.00;91224.81;5066648;27;20458;-77
2022/04/02 20:30:53;;;;;;;2.03;1.93;;;;;;;6.54;100.00;91266.16;5066855;27;20469;-79
2022/04/02 20:33:21;;;;;;;1.50;1.50;;;;;;;6.17;100.00;91207.00;5069341;27;20556;-77
2022/04/02 20:35:50;;;;;;;2.63;2.53;;;;;;;6.05;100.00;91204.25;5072537;27;20583;-77
2022/04/02 20:38:18;;;;;;;1.87;1.87;;;;;;;6.19;100.00;91224.47;5067253;27;20281;-78
2022/04/02 20:40:46;;;;;;;2.60;2.50;;;;;;;6.51;100.00;91258.00;5067360;27;20631;-78
2022/04/02 20:43:19;;;;;;;2.00;2.00;;;;;;;6.66;100.00;91283.13;5069009;27;20494;-78
2022/04/02 20:45:49;;;;;;;2.10;2.00;;;;;;;6.34;100.00;91193.63;5070254;27;20705;-77
2022/04/02 20:48:30;;;;;;;1.03;1.03;;;;;;;6.57;100.00;91265.22;5067783;27;20515;-77
2022/04/02 20:51:05;;;;;;;1.30;1.30;;;;;;;6.11;100.00;91222.31;5067365;27;20556;-76
2022/04/02 20:53:35;;;;;;;2.03;1.63;;;;;;;6.28;100.00;91244.06;5069274;27;20653;-78
2022/04/02 20:56:05;;;;;;;2.20;2.10;;;;;;;6.37;100.00;91252.81;5068001;27;20656;-78
2022/04/02 20:58:42;;;;;;;0.93;0.93;;;;;;;6.02;100.00;91225.28;5067414;27;20514;-76
2022/04/02 21:01:12;;;;;;;1.40;1.40;;;;;;;5.72;100.00;91209.16;5068539;27;20480;-78
2022/04/02 21:03:40;;;;;;;2.03;1.93;;;;;;;5.92;100.00;91251.66;5063400;27;20629;-79
2022/04/02 21:06:09;;;;;;;3.30;1.90;;;;;;;6.11;100.00;91282.50;5068716;27;20521;-78
2022/04/02 21:08:38;;;;;;;1.77;1.67;;;;;;;6.02;100.00;91259.56;5066430;27;20633;-79
2022/04/02 21:11:08;;;;;;;1.53;1.47;;;;;;;5.98;100.00;91260.56;5066569;27;20535;-78
2022/04/02 21:13:36;;;;;;;2.20;2.10;;;;;;;5.45;100.00;91180.41;5066282;27;20584;-78
2022/04/02 21:16:05;;;;;;;1.83;1.73;;;;;;;6.00;100.00;91279.69;5066651;27;20483;-79
2022/04/02 21:18:34;;;;;;;2.33;2.23;;;;;;;6.10;100.00;91282.56;5055189;28;20623;-77
2022/04/02 21:21:02;;;;;;;2.43;2.33;;;;;;;5.50;100.00;91188.50;5065412;27;20489;-78
2022/04/02 21:23:31;;;;;;;1.63;1.63;;;;;;;6.24;100.00;91282.72;5068776;27;20220;-78
2022/04/02 21:25:59;;;;;;;1.47;1.47;;;;;;;5.73;100.00;91234.16;5065853;27;20516;-79
2022/04/02 21:28:28;;;;;;;1.30;1.20;;;;;;;5.61;100.00;91202.16;5067774;27;20208;-78
2022/04/02 21:30:56;;;;;;;1.63;1.63;;;;;;;5.98;100.00;91258.88;5065820;27;20624;-78
2022/04/02 21:33:23;;;;;;;1.13;1.13;;;;;;;5.79;100.00;91268.94;5068147;27;20556;-79
2022/04/02 21:35:54;;;;;;;1.00;1.00;;;;;;;5.34;100.00;91208.44;5054326;27;20557;-81
2022/04/02 21:38:25;;;;;;;1.20;1.20;;;;;;;5.69;100.00;91259.44;5067552;27;20584;-79
2022/04/02 21:40:53;;;;;;;1.00;1.00;;;;;;;5.17;100.00;91203.41;5066969;27;20295;-79
2022/04/02 21:43:21;;;;;;;2.13;2.10;;;;;;;5.25;100.00;91212.16;5069639;27;20572;-79
2022/04/02 21:45:48;;;;;;;1.10;1.10;;;;;;;5.32;100.00;91215.22;5066291;27;20624;-77
2022/04/02 21:48:16;;;;;;;1.37;1.37;;;;;;;5.47;100.00;91228.72;5065000;27;20608;-79
2022/04/02 21:50:49;;;;;;;5.20;1.23;;;;;;;5.33;100.00;91199.31;5068611;27;20511;-80
2022/04/02 21:53:25;;;;;;;0.80;0.80;;;;;;;5.48;100.00;91231.16;5067868;27;20263;-79
2022/04/02 21:55:53;;;;;;;2.87;2.20;;;;;;;5.24;100.00;91195.53;5064998;27;20572;-80
2022/04/02 21:58:39;;;;;;;1.60;1.60;;;;;;;5.97;100.00;91294.06;5065797;27;20562;-79
2022/04/02 22:01:29;;;;;;;3.67;3.47;;;;;;;6.11;100.00;91301.72;5065357;27;20485;-78
2022/04/02 22:04:41;;;;;;;3.37;3.13;;;;;;;5.53;100.00;91201.69;5050367;28;20561;-79
2022/04/02 22:07:41;;;;;;;2.53;2.43;;;;;;;6.13;100.00;91295.78;5060165;27;20596;-79
2022/04/02 22:10:11;;;;;;;2.00;1.90;;;;;;;5.80;100.00;91279.78;5064644;27;20465;-80
2022/04/02 22:12:39;;;;;;;2.10;2.00;;;;;;;5.89;100.00;91311.94;5055154;27;20192;-79
2022/04/02 22:15:08;;;;;;;2.67;2.50;;;;;;;5.12;100.00;91225.31;5065020;27;20707;-79
2022/04/02 22:17:47;;;;;;;2.13;2.03;;;;;;;5.53;100.00;91279.34;5064458;27;20628;-79
2022/04/02 22:20:19;;;;;;;3.60;1.67;;;;;;;5.32;100.00;91242.75;5064208;27;20311;-80
2022/04/02 22:22:50;;;;;;;2.77;2.67;;;;;;;5.18;100.00;91217.53;5065556;27;20524;-80
2022/04/02 22:25:20;;;;;;;3.57;2.63;;;;;;;5.32;100.00;91236.06;5066901;27;20523;-80
2022/04/02 22:27:48;;;;;;;3.53;3.33;;;;;;;5.30;100.00;91269.53;5065451;27;20571;-80
2022/04/02 22:30:17;;;;;;;6.17;4.30;;;;;;;4.79;100.00;91225.91;5065778;27;20188;-79
2022/04/02 22:32:46;;;;;;;3.87;3.60;;;;;;;4.83;100.00;91244.13;5061696;27;20517;-81
2022/04/02 22:35:14;;;;;;;4.37;4.00;;;;;;;5.25;100.00;91309.81;5063017;27;20655;-80
2022/04/02 22:37:43;;;;;;;2.93;2.47;;;;;;;5.34;100.00;91311.09;5062348;27;20220;-80
2022/04/02 22:40:12;;;;;;;2.20;2.13;;;;;;;4.87;100.00;91213.88;5062302;27;20643;-80
2022/04/02 22:42:45;;;;;;;1.40;1.40;;;;;;;5.50;100.00;91302.03;5065215;27;20604;-79
2022/04/02 22:45:20;;;;;;;1.33;1.33;;;;;;;5.37;100.00;91263.38;5064789;27;20679;-81
2022/04/02 22:47:49;;;;;;;2.10;1.63;;;;;;;5.01;100.00;91206.56;5063211;27;20566;-81
2022/04/02 22:50:19;;;;;;;1.33;1.33;;;;;;;4.86;100.00;91196.44;5059588;27;20292;-81
2022/04/02 22:52:47;;;;;;;1.40;1.40;;;;;;;5.33;100.00;91251.88;5062007;27;20637;-81
2022/04/02 22:55:19;;;;;;;1.00;1.00;;;;;;;4.99;100.00;91197.53;5065065;27;20473;-81
2022/04/02 22:57:58;;;;;;;1.20;1.17;;;;;;;4.82;100.00;91194.97;5063344;27;20488;-80
2022/04/02 23:00:29;;;;;;;0.80;0.80;;;;;;;5.16;100.00;91255.16;5065306;28;20577;-84
2022/04/02 23:02:56;;;;;;;1.00;1.00;;;;;;;5.04;100.00;91272.38;5064707;27;20656;-81
2022/04/02 23:05:30;;;;;;;0.90;0.90;;;;;;;5.09;100.00;91285.50;5066746;27;20651;-79
2022/04/02 23:08:01;;;;;;;0.90;0.90;;;;;;;4.73;100.00;91236.19;5063196;27;20493;-82
2022/04/02 23:10:29;;;;;;;0.70;0.70;;;;;;;4.43;100.00;91195.81;5065746;27;20580;-82
2022/04/02 23:13:00;;;;;;;1.10;1.03;;;;;;;4.54;100.00;91208.66;5069113;27;20200;-81
2022/04/02 23:15:29;;;;;;;0.67;0.67;;;;;;;4.69;100.00;91221.38;5064436;27;20196;-79